createdAt,value
2023-01-08T00:02:05.000Z,4.88
2023-01-08T00:04:33.943Z,5.82
2023-01-08T00:07:03.074Z,5.20
2023-01-08T00:09:34.437Z,5.22
2023-01-08T00:12:03.465Z,5.25
2023-01-08T00:14:32.558Z,4.07
2023-01-08T00:17:02.892Z,4.22
2023-01-08T00:19:34.235Z,5.15
2023-01-08T00:22:03.323Z,3.78
2023-01-08T00:24:32.308Z,5.35
2023-01-08T00:27:01.364Z,5.70
2023-01-08T00:29:30.620Z,4.90
2023-01-08T00:31:59.641Z,5.03
2023-01-08T00:34:28.542Z,5.03
2023-01-08T00:36:59.144Z,4.10
2023-01-08T00:39:28.193Z,4.95
2023-01-08T00:41:57.208Z,5.05
2023-01-08T00:44:26.244Z,5.35
2023-01-08T00:46:55.488Z,5.25
2023-01-08T00:49:24.450Z,5.63
2023-01-08T00:51:53.472Z,4.75
2023-01-08T00:54:23.889Z,6.18
2023-01-08T00:56:54.013Z,5.63
2023-01-08T00:59:23.229Z,5.72
2023-01-08T01:01:54.510Z,5.75
2023-01-08T01:04:23.664Z,5.45
2023-01-08T01:06:52.630Z,6.65
2023-01-08T01:09:23.039Z,5.95
2023-01-08T01:11:52.274Z,5.60
2023-01-08T01:14:21.444Z,5.10
2023-01-08T01:16:50.574Z,5.05
2023-01-08T01:19:20.138Z,5.75
2023-01-08T01:21:51.935Z,5.65
2023-01-08T01:24:25.069Z,5.95
2023-01-08T01:26:56.459Z,7.28
2023-01-08T01:29:26.088Z,5.80
2023-01-08T01:31:59.586Z,6.43
2023-01-08T01:34:28.515Z,6.05
2023-01-08T01:36:57.591Z,6.28
2023-01-08T01:39:27.943Z,5.45
2023-01-08T01:41:56.911Z,5.75
2023-01-08T01:44:43.872Z,6.18
2023-01-08T01:47:21.883Z,6.28
2023-01-08T01:49:57.666Z,6.22
2023-01-08T01:52:29.535Z,6.70
2023-01-08T01:55:02.858Z,6.93
2023-01-08T01:57:34.175Z,6.28
2023-01-08T02:00:05.327Z,6.85
2023-01-08T02:02:40.716Z,6.95
2023-01-08T02:05:10.402Z,6.05
2023-01-08T02:07:48.436Z,7.25
2023-01-08T02:10:22.544Z,6.35
2023-01-08T02:12:58.280Z,7.45
2023-01-08T02:15:35.986Z,6.93
2023-01-08T02:18:10.140Z,6.13
2023-01-08T02:20:41.351Z,6.35
2023-01-08T02:23:22.032Z,6.50
2023-01-08T02:26:11.894Z,6.05
2023-01-08T02:28:46.157Z,6.97
2023-01-08T02:31:16.878Z,6.22
2023-01-08T02:33:45.983Z,7.13
2023-01-08T02:36:30.728Z,7.53
2023-01-08T02:39:21.462Z,7.57
2023-01-08T02:42:05.712Z,7.00
2023-01-08T02:44:51.539Z,5.65
2023-01-08T02:47:29.994Z,6.82
2023-01-08T02:50:07.153Z,8.00
2023-01-08T02:52:39.850Z,7.38
2023-01-08T02:55:10.731Z,7.50
2023-01-08T02:57:41.940Z,7.10
2023-01-08T03:00:12.429Z,7.45
2023-01-08T03:02:43.048Z,8.27
2023-01-08T03:05:21.678Z,7.18
2023-01-08T03:07:51.012Z,7.55
2023-01-08T03:10:23.054Z,8.45
2023-01-08T03:12:57.297Z,8.13
2023-01-08T03:15:32.817Z,7.72
2023-01-08T03:18:08.450Z,8.27
2023-01-08T03:20:39.273Z,7.47
2023-01-08T03:23:11.598Z,8.68
2023-01-08T03:26:08.740Z,7.85
2023-01-08T03:28:43.112Z,7.25
2023-01-08T03:31:14.839Z,8.20
2023-01-08T03:33:45.610Z,9.18
2023-01-08T03:36:18.506Z,7.72
2023-01-08T03:38:53.370Z,8.43
2023-01-08T03:41:24.822Z,9.13
2023-01-08T03:43:55.373Z,8.95
2023-01-08T03:46:30.687Z,8.50
2023-01-08T03:49:02.165Z,8.43
2023-01-08T03:51:40.017Z,8.70
2023-01-08T03:54:14.015Z,9.60
2023-01-08T03:56:43.053Z,8.35
2023-01-08T03:59:15.047Z,7.97
2023-01-08T04:01:44.496Z,7.90
2023-01-08T04:04:13.966Z,7.88
2023-01-08T04:06:42.980Z,7.82
2023-01-08T04:09:11.962Z,9.15
2023-01-08T04:11:40.901Z,8.38
2023-01-08T04:14:12.311Z,8.73
2023-01-08T04:16:42.710Z,9.25
2023-01-08T04:19:13.068Z,7.85
2023-01-08T04:21:42.255Z,8.50
2023-01-08T04:24:12.066Z,8.93
2023-01-08T04:26:41.248Z,8.75
2023-01-08T04:29:10.229Z,8.35
2023-01-08T04:31:39.283Z,8.40
2023-01-08T04:34:09.574Z,8.13
2023-01-08T04:36:38.580Z,9.52
2023-01-08T04:39:09.041Z,9.20
2023-01-08T04:41:37.998Z,8.20
2023-01-08T04:44:07.440Z,8.43
2023-01-08T04:46:36.701Z,7.50
2023-01-08T04:49:05.809Z,7.55
2023-01-08T04:51:36.887Z,9.82
2023-01-08T04:54:58.675Z,7.85
2023-01-08T04:57:27.998Z,9.57
2023-01-08T04:59:57.169Z,10.27
2023-01-08T05:02:26.441Z,8.70
2023-01-08T05:04:55.587Z,8.80
2023-01-08T05:07:26.300Z,7.63
2023-01-08T05:09:55.301Z,7.97
2023-01-08T05:12:24.387Z,7.80
2023-01-08T05:14:53.390Z,8.57
2023-01-08T05:17:22.551Z,7.85
2023-01-08T05:19:51.580Z,8.85
2023-01-08T05:22:20.675Z,9.23
2023-01-08T05:24:51.073Z,7.32
2023-01-08T05:27:20.218Z,8.25
2023-01-08T05:29:49.264Z,8.57
2023-01-08T05:32:20.128Z,8.63
2023-01-08T05:34:49.175Z,8.18
2023-01-08T05:37:18.240Z,7.47
2023-01-08T05:39:47.564Z,8.45
2023-01-08T05:42:18.081Z,7.40
2023-01-08T05:44:47.166Z,8.52
2023-01-08T05:47:16.238Z,8.32
2023-01-08T05:49:45.432Z,8.45
2023-01-08T05:52:14.725Z,8.30
2023-01-08T05:54:43.892Z,8.13
2023-01-08T05:57:13.000Z,7.50
2023-01-08T05:59:43.376Z,7.93
2023-01-08T06:02:12.623Z,7.68
2023-01-08T06:04:41.912Z,6.90
2023-01-08T06:07:11.073Z,7.55
2023-01-08T06:09:40.320Z,9.00
2023-01-08T06:12:09.670Z,6.60
2023-01-08T06:14:38.712Z,7.32
2023-01-08T06:17:09.697Z,7.28
2023-01-08T06:19:39.459Z,6.75
2023-01-08T06:22:08.626Z,7.75
2023-01-08T06:24:37.634Z,7.03
2023-01-08T06:27:06.684Z,6.70
2023-01-08T06:29:35.737Z,8.02
2023-01-08T06:32:04.775Z,5.97
2023-01-08T06:34:35.261Z,7.40
2023-01-08T06:37:04.319Z,8.75
2023-01-08T06:39:33.416Z,6.75
2023-01-08T06:42:03.501Z,7.03
2023-01-08T06:44:32.565Z,6.38
2023-01-08T06:47:01.637Z,7.93
2023-01-08T06:49:30.787Z,7.75
2023-01-08T06:52:01.235Z,7.00
2023-01-08T06:54:30.342Z,5.63
2023-01-08T06:56:59.481Z,6.32
2023-01-08T06:59:53.272Z,6.82
2023-01-08T07:02:25.425Z,7.07
2023-01-08T07:04:54.801Z,7.03
2023-01-08T07:07:25.231Z,6.70
2023-01-08T07:09:54.304Z,6.93
2023-01-08T07:12:23.577Z,6.95
2023-01-08T07:14:52.775Z,6.35
2023-01-08T07:17:21.849Z,4.90
2023-01-08T07:19:50.855Z,7.60
2023-01-08T07:22:20.342Z,6.75
2023-01-08T07:24:50.794Z,6.45
2023-01-08T07:27:20.799Z,7.03
2023-01-08T07:29:49.851Z,6.63
2023-01-08T07:32:18.907Z,5.60
2023-01-08T07:34:47.930Z,5.00
2023-01-08T07:37:17.047Z,6.00
2023-01-08T07:39:46.073Z,6.38
2023-01-08T07:42:16.880Z,5.55
2023-01-08T07:44:45.892Z,6.72
2023-01-08T07:47:14.845Z,6.10
2023-01-08T07:49:44.031Z,5.43
2023-01-08T07:52:13.015Z,6.78
2023-01-08T07:54:42.361Z,6.32
2023-01-08T07:57:11.639Z,5.68
2023-01-08T07:59:42.118Z,7.88
2023-01-08T08:02:12.364Z,6.97
2023-01-08T08:04:41.477Z,6.07
2023-01-08T08:07:10.682Z,6.28
2023-01-08T08:09:39.934Z,6.30
2023-01-08T08:12:10.051Z,6.05
2023-01-08T08:14:40.599Z,5.25
2023-01-08T08:17:09.777Z,5.32
2023-01-08T08:19:38.873Z,6.20
2023-01-08T08:22:07.884Z,6.22
2023-01-08T08:24:36.895Z,6.45
2023-01-08T08:27:06.320Z,6.45
2023-01-08T08:29:35.436Z,5.57
2023-01-08T08:32:06.218Z,5.85
2023-01-08T08:34:35.693Z,6.38
2023-01-08T08:37:04.793Z,6.03
2023-01-08T08:39:33.919Z,6.28
2023-01-08T08:42:02.951Z,6.35
2023-01-08T08:44:32.060Z,6.22
2023-01-08T08:47:01.239Z,6.63
2023-01-08T08:49:31.790Z,6.65
2023-01-08T08:52:00.911Z,6.57
2023-01-08T08:54:30.009Z,5.93
2023-01-08T08:56:59.114Z,5.43
2023-01-08T08:59:28.129Z,6.55
2023-01-08T09:01:57.258Z,6.15
2023-01-08T09:04:26.406Z,5.75
2023-01-08T09:06:56.881Z,5.95
2023-01-08T09:09:26.076Z,5.43
2023-01-08T09:11:55.756Z,5.60
2023-01-08T09:14:24.831Z,6.50
2023-01-08T09:16:53.931Z,5.85
2023-01-08T09:19:22.991Z,6.35
2023-01-08T09:21:52.328Z,7.50
2023-01-08T09:24:22.891Z,5.18
2023-01-08T09:26:54.083Z,5.60
2023-01-08T09:29:23.222Z,5.00
2023-01-08T09:31:52.492Z,5.82
2023-01-08T09:34:21.598Z,5.93
2023-01-08T09:36:50.629Z,6.47
2023-01-08T09:39:19.650Z,5.82
2023-01-08T09:41:51.355Z,5.88
2023-01-08T09:44:25.584Z,5.53
2023-01-08T09:46:58.306Z,6.18
2023-01-08T09:49:36.666Z,5.40
2023-01-08T09:52:05.844Z,6.97
2023-01-08T09:54:34.853Z,6.05
2023-01-08T09:57:05.907Z,5.53
2023-01-08T09:59:35.373Z,6.70
2023-01-08T10:02:05.690Z,6.18
2023-01-08T10:04:34.914Z,5.80
2023-01-08T10:07:15.978Z,6.72
2023-01-08T10:09:45.161Z,5.85
2023-01-08T10:12:16.169Z,5.22
2023-01-08T10:14:50.041Z,5.50
2023-01-08T10:17:28.419Z,6.47
2023-01-08T10:19:57.680Z,4.93
2023-01-08T10:22:33.123Z,5.68
2023-01-08T10:25:08.740Z,5.50
2023-01-08T10:27:49.323Z,5.53
2023-01-08T10:30:20.774Z,6.10
2023-01-08T10:32:54.686Z,5.78
2023-01-08T10:35:33.613Z,5.50
2023-01-08T10:38:05.177Z,7.50
2023-01-08T10:40:39.190Z,4.70
2023-01-08T10:43:15.010Z,5.55
2023-01-08T10:45:46.636Z,6.70
2023-01-08T10:48:20.082Z,5.90
2023-01-08T10:50:50.444Z,5.47
2023-01-08T10:53:27.516Z,5.10
2023-01-08T10:56:01.205Z,6.38
2023-01-08T10:58:42.375Z,6.05
2023-01-08T11:01:19.914Z,5.90
2023-01-08T11:04:00.696Z,6.63
2023-01-08T11:06:33.008Z,6.82
2023-01-08T11:09:05.386Z,6.88
2023-01-08T11:11:37.192Z,6.57
2023-01-08T11:14:18.067Z,6.35
2023-01-08T11:16:50.489Z,5.85
2023-01-08T11:19:28.578Z,6.85
2023-01-08T11:22:00.968Z,6.88
2023-01-08T11:24:32.719Z,5.93
2023-01-08T11:27:25.349Z,6.20
2023-01-08T11:30:06.622Z,6.35
2023-01-08T11:32:47.743Z,5.50
2023-01-08T11:36:32.421Z,5.95
2023-01-08T11:39:04.780Z,5.47
2023-01-08T11:41:58.145Z,6.63
2023-01-08T11:44:39.393Z,7.25
2023-01-08T11:47:47.130Z,6.90
2023-01-08T11:50:24.358Z,7.23
2023-01-08T11:53:08.661Z,6.17
2023-01-08T11:56:17.458Z,6.90
2023-01-08T12:02:47.175Z,4.70
2023-01-08T12:05:39.056Z,5.37
2023-01-08T12:08:15.326Z,5.83
2023-01-08T12:11:00.781Z,5.90
2023-01-08T12:13:48.061Z,6.88
2023-01-08T12:16:35.957Z,5.70
2023-01-08T12:19:25.317Z,6.80
2023-01-08T12:22:14.205Z,7.57
2023-01-08T12:25:10.617Z,7.90
2023-01-08T12:27:58.913Z,6.57
2023-01-08T12:30:42.464Z,5.13
2023-01-08T12:33:39.136Z,6.13
2023-01-08T12:36:15.037Z,7.13
2023-01-08T12:38:51.188Z,5.67
2023-01-08T12:41:22.922Z,7.00
2023-01-08T12:43:59.496Z,7.23
2023-01-08T12:46:34.878Z,7.43
2023-01-08T12:49:07.597Z,6.57
2023-01-08T12:51:41.432Z,5.33
2023-01-08T12:54:27.583Z,6.00
2023-01-08T12:57:04.390Z,6.53
2023-01-08T12:59:43.281Z,5.70
2023-01-08T13:02:27.681Z,6.20
2023-01-08T13:04:57.243Z,7.40
2023-01-08T13:07:31.101Z,7.03
2023-01-08T13:10:07.997Z,7.10
2023-01-08T13:12:39.993Z,7.18
2023-01-08T13:15:12.247Z,6.78
2023-01-08T13:17:42.206Z,6.77
2023-01-08T13:20:21.384Z,7.53
2023-01-08T13:22:55.951Z,7.22
2023-01-08T13:25:33.698Z,7.55
2023-01-08T13:28:29.536Z,5.80
2023-01-08T13:31:11.527Z,6.88
2023-01-08T13:34:19.783Z,7.68
2023-01-08T13:36:58.900Z,7.28
2023-01-08T13:39:36.626Z,7.07
2023-01-08T13:42:24.943Z,6.07
2023-01-08T13:44:59.582Z,7.40
2023-01-08T13:47:33.899Z,6.90
2023-01-08T13:50:08.469Z,7.20
2023-01-08T13:52:45.824Z,6.70
2023-01-08T13:55:18.849Z,7.60
2023-01-08T13:57:56.383Z,7.53
2023-01-08T14:00:31.641Z,8.32
2023-01-08T14:03:02.905Z,8.20
2023-01-08T14:05:35.787Z,6.57
2023-01-08T14:08:07.314Z,8.23
2023-01-08T14:10:41.592Z,8.27
2023-01-08T14:13:18.944Z,9.32
2023-01-08T14:15:51.046Z,8.23
2023-01-08T14:18:23.016Z,7.55
2023-01-08T14:20:54.754Z,7.55
2023-01-08T14:23:30.190Z,7.80
2023-01-08T14:26:05.532Z,8.13
2023-01-08T14:28:37.702Z,9.27
2023-01-08T14:31:08.638Z,8.38
2023-01-08T14:33:42.671Z,8.13
2023-01-08T14:36:12.511Z,7.45
2023-01-08T14:38:42.969Z,9.15
2023-01-08T14:41:15.774Z,8.27
2023-01-08T14:43:50.100Z,8.40
2023-01-08T14:46:24.989Z,7.35
2023-01-08T14:48:58.686Z,8.40
2023-01-08T14:51:31.212Z,7.85
2023-01-08T14:54:05.561Z,10.13
2023-01-08T14:56:37.932Z,8.27
2023-01-08T14:59:14.169Z,8.70
2023-01-08T15:01:44.250Z,8.40
2023-01-08T15:04:20.280Z,8.13
2023-01-08T15:06:55.380Z,7.78
2023-01-08T15:09:29.674Z,7.47
2023-01-08T15:12:06.686Z,8.65
2023-01-08T15:14:38.103Z,9.10
2023-01-08T15:17:12.635Z,8.77
2023-01-08T15:19:46.854Z,8.75
2023-01-08T15:22:23.092Z,9.05
2023-01-08T15:25:00.120Z,10.82
2023-01-08T15:27:31.532Z,8.57
2023-01-08T15:30:04.226Z,8.23
2023-01-08T15:32:37.540Z,7.88
2023-01-08T15:35:16.389Z,10.82
2023-01-08T15:37:45.958Z,9.10
2023-01-08T15:40:18.011Z,8.38
2023-01-08T15:43:04.877Z,9.07
2023-01-08T15:45:36.472Z,8.80
2023-01-08T15:48:08.709Z,9.90
2023-01-08T15:50:41.073Z,10.43
2023-01-08T15:53:18.539Z,9.40
2023-01-08T15:55:48.505Z,8.05
2023-01-08T15:58:19.322Z,10.98
2023-01-08T16:00:52.379Z,8.35
2023-01-08T16:03:25.912Z,8.60
2023-01-08T16:05:56.132Z,9.75
2023-01-08T16:08:28.208Z,8.85
2023-01-08T16:10:59.790Z,9.10
2023-01-08T16:13:30.230Z,8.40
2023-01-08T16:16:01.912Z,8.75
2023-01-08T16:18:33.564Z,9.15
2023-01-08T16:21:03.854Z,8.35
2023-01-08T16:23:35.953Z,11.32
2023-01-08T16:26:08.487Z,9.13
2023-01-08T16:28:39.336Z,8.82
2023-01-08T16:31:11.894Z,10.52
2023-01-08T16:33:41.942Z,8.90
2023-01-08T16:36:12.674Z,10.52
2023-01-08T16:38:43.092Z,8.25
2023-01-08T16:41:13.899Z,8.38
2023-01-08T16:43:45.897Z,7.82
2023-01-08T16:46:23.316Z,9.55
2023-01-08T16:48:52.915Z,9.20
2023-01-08T16:51:28.422Z,8.90
2023-01-08T16:53:58.577Z,10.55
2023-01-08T16:56:28.441Z,9.10
2023-01-08T16:58:59.583Z,8.40
2023-01-08T17:01:30.725Z,9.70
2023-01-08T17:04:01.421Z,8.38
2023-01-08T17:06:31.559Z,8.10
2023-01-08T17:09:04.146Z,7.50
2023-01-08T17:11:33.937Z,9.52
2023-01-08T17:14:04.022Z,8.30
2023-01-08T17:16:35.921Z,8.57
2023-01-08T17:19:06.604Z,8.27
2023-01-08T17:21:36.419Z,9.57
2023-01-08T17:24:06.909Z,7.47
2023-01-08T17:26:38.179Z,8.90
2023-01-08T17:29:10.121Z,8.45
2023-01-08T17:31:41.593Z,8.88
2023-01-08T17:34:15.233Z,8.70
2023-01-08T17:36:45.438Z,8.73
2023-01-08T17:39:15.424Z,9.27
2023-01-08T17:42:02.445Z,7.55
2023-01-08T17:44:32.771Z,9.65
2023-01-08T17:47:07.045Z,9.07
2023-01-08T17:49:37.544Z,11.88
2023-01-08T17:52:10.713Z,9.10
2023-01-08T17:55:31.508Z,9.23
2023-01-08T17:58:01.710Z,9.45
2023-01-08T18:00:32.079Z,10.55
2023-01-08T18:03:04.190Z,7.95
2023-01-08T18:05:34.938Z,8.98
2023-01-08T18:08:05.899Z,9.38
2023-01-08T18:10:37.569Z,8.93
2023-01-08T18:13:08.259Z,8.55
2023-01-08T18:15:38.623Z,8.02
2023-01-08T18:18:11.097Z,8.80
2023-01-08T18:20:43.098Z,8.73
2023-01-08T18:23:13.932Z,9.85
2023-01-08T18:25:43.985Z,8.30
2023-01-08T18:28:15.798Z,8.35
2023-01-08T18:30:47.611Z,7.90
2023-01-08T18:33:19.404Z,8.05
2023-01-08T18:35:49.562Z,8.60
2023-01-08T18:38:24.221Z,8.85
2023-01-08T18:40:57.733Z,7.18
2023-01-08T18:43:28.832Z,8.93
2023-01-08T18:46:02.195Z,8.35
2023-01-08T18:48:37.036Z,9.00
2023-01-08T18:51:10.890Z,8.68
2023-01-08T18:53:42.662Z,9.77
2023-01-08T18:56:15.491Z,9.52
2023-01-08T18:58:46.677Z,8.52
2023-01-08T19:01:18.208Z,9.43
2023-01-08T19:03:50.805Z,9.48
2023-01-08T19:06:27.419Z,9.85
2023-01-08T19:09:00.909Z,9.75
2023-01-08T19:11:36.924Z,10.23
2023-01-08T19:14:07.011Z,7.60
2023-01-08T19:16:39.005Z,9.75
2023-01-08T19:19:12.654Z,7.15
2023-01-08T19:21:44.660Z,8.02
2023-01-08T19:24:16.385Z,8.25
2023-01-08T19:26:47.553Z,7.13
2023-01-08T19:29:18.265Z,8.45
2023-01-08T19:31:49.440Z,8.55
2023-01-08T19:34:21.937Z,8.10
2023-01-08T19:36:57.968Z,7.50
2023-01-08T19:39:31.597Z,8.45
2023-01-08T19:42:20.789Z,7.82
2023-01-08T19:44:51.644Z,9.00
2023-01-08T19:47:23.063Z,8.18
2023-01-08T19:49:58.129Z,8.90
2023-01-08T19:52:31.389Z,8.95
2023-01-08T19:55:02.148Z,9.75
2023-01-08T19:57:33.443Z,8.35
2023-01-08T20:00:11.338Z,9.05
2023-01-08T20:02:42.899Z,8.52
2023-01-08T20:05:15.805Z,9.20
2023-01-08T20:07:47.420Z,8.40
2023-01-08T20:10:18.809Z,8.77
2023-01-08T20:12:55.863Z,9.32
2023-01-08T20:40:07.970Z,9.52
2023-01-08T20:42:49.472Z,9.90
2023-01-08T20:45:28.016Z,11.30
2023-01-08T20:48:01.752Z,9.55
2023-01-08T20:50:34.233Z,11.68
2023-01-08T20:53:03.563Z,10.90
2023-01-08T20:55:34.124Z,12.02
2023-01-08T20:58:03.230Z,11.40
2023-01-08T21:00:32.413Z,11.73
2023-01-08T21:03:01.544Z,10.95
2023-01-08T21:05:31.034Z,11.18
2023-01-08T21:08:00.107Z,11.05
2023-01-08T21:10:29.521Z,10.45
2023-01-08T21:13:01.169Z,10.05
2023-01-08T21:15:30.418Z,11.85
2023-01-08T21:17:59.634Z,10.95
2023-01-08T21:20:29.151Z,11.70
2023-01-08T21:22:58.260Z,11.93
2023-01-08T21:25:27.832Z,11.25
2023-01-08T21:27:57.025Z,10.48
2023-01-08T21:30:27.875Z,10.95
2023-01-08T21:32:57.372Z,11.38
2023-01-08T21:35:26.829Z,11.55
2023-01-08T21:37:56.048Z,10.45
2023-01-08T21:40:25.167Z,10.93
2023-01-08T21:43:11.668Z,9.52
2023-01-08T21:45:42.330Z,9.60
2023-01-08T21:48:12.840Z,9.65
2023-01-08T21:50:44.078Z,11.43
2023-01-08T21:53:30.641Z,9.32
2023-01-08T21:56:00.613Z,10.30
2023-01-08T21:58:30.441Z,10.32
2023-01-08T22:01:51.915Z,10.10
2023-01-08T22:04:22.417Z,10.48
2023-01-08T22:06:53.271Z,10.27
2023-01-08T22:09:22.500Z,9.35
2023-01-08T22:11:51.572Z,9.20
2023-01-08T22:14:21.020Z,10.50
2023-01-08T22:16:50.016Z,9.48
2023-01-08T22:19:19.432Z,10.20
2023-01-08T22:21:50.041Z,9.57
2023-01-08T22:24:19.080Z,9.85
2023-01-08T22:26:48.748Z,8.90
2023-01-08T22:29:17.767Z,7.85
2023-01-08T22:31:46.785Z,10.10
2023-01-08T22:34:17.420Z,8.30
2023-01-08T22:36:50.886Z,9.77
2023-01-08T22:39:20.265Z,9.02
2023-01-08T22:41:49.372Z,9.90
2023-01-08T22:44:18.438Z,8.52
2023-01-08T22:46:47.470Z,9.80
2023-01-08T22:49:16.572Z,10.10
2023-01-08T22:51:45.620Z,8.88
2023-01-08T22:54:18.209Z,8.80
2023-01-08T22:56:47.246Z,8.73
2023-01-08T22:59:16.289Z,9.75
2023-01-08T23:01:45.301Z,10.65
2023-01-08T23:04:15.303Z,9.52
2023-01-08T23:06:44.609Z,9.25
2023-01-08T23:09:15.081Z,9.27
2023-01-08T23:11:44.294Z,8.23
2023-01-08T23:14:16.196Z,8.20
2023-01-08T23:16:45.374Z,9.25
2023-01-08T23:19:14.401Z,8.77
2023-01-08T23:21:43.529Z,7.50
2023-01-08T23:24:15.639Z,9.35
2023-01-08T23:26:44.924Z,7.35
2023-01-08T23:29:14.035Z,9.43
2023-01-08T23:31:44.404Z,8.98
2023-01-08T23:34:13.807Z,8.93
2023-01-08T23:36:44.478Z,8.98
2023-01-08T23:39:13.611Z,8.88
2023-01-08T23:41:44.057Z,8.40
2023-01-08T23:44:16.201Z,8.57
2023-01-08T23:46:45.424Z,9.20
2023-01-08T23:49:14.571Z,9.65
2023-01-08T23:51:43.618Z,9.07
2023-01-08T23:54:13.896Z,8.63
2023-01-08T23:56:44.840Z,10.32
2023-01-08T23:59:14.305Z,8.70
